sensor_id;sensor_type;location;lat;lon;timestamp;P1;durP1;ratioP1;P2;durP2;ratioP2
2390;SDS011;22957;50.824;4.360;2023-12-07T00:00:36;32.80;;;14.73;;
2390;SDS011;22957;50.824;4.360;2023-12-07T00:03:02;24.90;;;13.90;;
2390;SDS011;22957;50.824;4.360;2023-12-07T00:05:28;35.20;;;17.77;;
2390;SDS011;22957;50.824;4.360;2023-12-07T00:07:53;31.50;;;15.63;;
2390;SDS011;22957;50.824;4.360;2023-12-07T00:10:19;31.60;;;17.67;;
2390;SDS011;22957;50.824;4.360;2023-12-07T00:12:44;32.97;;;15.80;;
2390;SDS011;22957;50.824;4.360;2023-12-07T00:15:10;32.63;;;17.10;;
2390;SDS011;22957;50.824;4.360;2023-12-07T00:17:36;33.00;;;15.17;;
2390;SDS011;22957;50.824;4.360;2023-12-07T00:20:02;27.03;;;13.70;;
2390;SDS011;22957;50.824;4.360;2023-12-07T00:22:31;30.13;;;12.97;;
2390;SDS011;22957;50.824;4.360;2023-12-07T00:24:56;33.07;;;17.07;;
2390;SDS011;22957;50.824;4.360;2023-12-07T00:27:22;29.90;;;15.80;;
2390;SDS011;22957;50.824;4.360;2023-12-07T00:29:48;32.23;;;16.80;;
2390;SDS011;22957;50.824;4.360;2023-12-07T00:32:13;31.27;;;15.60;;
2390;SDS011;22957;50.824;4.360;2023-12-07T00:34:39;25.30;;;13.50;;
2390;SDS011;22957;50.824;4.360;2023-12-07T00:37:04;25.67;;;12.80;;
2390;SDS011;22957;50.824;4.360;2023-12-07T00:39:30;31.23;;;15.20;;
2390;SDS011;22957;50.824;4.360;2023-12-07T00:41:55;27.90;;;13.80;;
2390;SDS011;22957;50.824;4.360;2023-12-07T00:44:21;37.17;;;17.80;;
2390;SDS011;22957;50.824;4.360;2023-12-07T00:46:47;37.40;;;16.67;;
2390;SDS011;22957;50.824;4.360;2023-12-07T00:49:12;29.70;;;15.93;;
2390;SDS011;22957;50.824;4.360;2023-12-07T00:51:38;25.10;;;13.00;;
2390;SDS011;22957;50.824;4.360;2023-12-07T00:54:04;36.50;;;15.67;;
2390;SDS011;22957;50.824;4.360;2023-12-07T00:56:29;26.80;;;14.83;;
2390;SDS011;22957;50.824;4.360;2023-12-07T00:58:55;35.10;;;16.87;;
2390;SDS011;22957;50.824;4.360;2023-12-07T01:01:21;29.47;;;14.87;;
2390;SDS011;22957;50.824;4.360;2023-12-07T01:03:46;27.93;;;14.23;;
2390;SDS011;22957;50.824;4.360;2023-12-07T01:06:12;27.70;;;15.97;;
2390;SDS011;22957;50.824;4.360;2023-12-07T01:08:37;29.20;;;17.10;;
2390;SDS011;22957;50.824;4.360;2023-12-07T01:11:04;28.77;;;13.80;;
2390;SDS011;22957;50.824;4.360;2023-12-07T01:13:30;29.23;;;16.30;;
2390;SDS011;22957;50.824;4.360;2023-12-07T01:15:55;28.27;;;17.13;;
2390;SDS011;22957;50.824;4.360;2023-12-07T01:18:21;32.27;;;16.27;;
2390;SDS011;22957;50.824;4.360;2023-12-07T01:20:47;35.20;;;16.80;;
2390;SDS011;22957;50.824;4.360;2023-12-07T01:23:13;35.87;;;14.60;;
2390;SDS011;22957;50.824;4.360;2023-12-07T01:25:39;26.60;;;15.93;;
2390;SDS011;22957;50.824;4.360;2023-12-07T01:28:05;36.93;;;16.30;;
2390;SDS011;22957;50.824;4.360;2023-12-07T01:30:31;27.00;;;14.80;;
2390;SDS011;22957;50.824;4.360;2023-12-07T01:32:56;26.10;;;13.97;;
2390;SDS011;22957;50.824;4.360;2023-12-07T01:35:22;25.90;;;12.90;;
2390;SDS011;22957;50.824;4.360;2023-12-07T01:37:48;28.57;;;13.50;;
2390;SDS011;22957;50.824;4.360;2023-12-07T01:40:13;30.07;;;15.40;;
2390;SDS011;22957;50.824;4.360;2023-12-07T01:42:40;29.50;;;16.23;;
2390;SDS011;22957;50.824;4.360;2023-12-07T01:45:14;31.07;;;17.13;;
2390;SDS011;22957;50.824;4.360;2023-12-07T01:47:39;26.73;;;14.70;;
2390;SDS011;22957;50.824;4.360;2023-12-07T01:50:06;27.83;;;15.80;;
2390;SDS011;22957;50.824;4.360;2023-12-07T01:52:34;30.93;;;15.83;;
2390;SDS011;22957;50.824;4.360;2023-12-07T01:55:03;31.40;;;15.87;;
2390;SDS011;22957;50.824;4.360;2023-12-07T01:57:30;28.60;;;13.70;;
2390;SDS011;22957;50.824;4.360;2023-12-07T01:59:56;26.40;;;14.60;;
2390;SDS011;22957;50.824;4.360;2023-12-07T02:02:21;25.37;;;15.27;;
2390;SDS011;22957;50.824;4.360;2023-12-07T02:04:48;24.10;;;13.60;;
2390;SDS011;22957;50.824;4.360;2023-12-07T02:07:14;27.07;;;14.67;;
2390;SDS011;22957;50.824;4.360;2023-12-07T02:09:40;25.13;;;14.33;;
2390;SDS011;22957;50.824;4.360;2023-12-07T02:12:05;22.33;;;11.77;;
2390;SDS011;22957;50.824;4.360;2023-12-07T02:14:31;22.10;;;13.43;;
2390;SDS011;22957;50.824;4.360;2023-12-07T02:17:08;23.70;;;12.03;;
2390;SDS011;22957;50.824;4.360;2023-12-07T02:19:55;21.00;;;12.10;;
2390;SDS011;22957;50.824;4.360;2023-12-07T02:22:44;20.77;;;11.00;;
2390;SDS011;22957;50.824;4.360;2023-12-07T02:25:15;20.57;;;11.47;;
2390;SDS011;22957;50.824;4.360;2023-12-07T02:27:43;21.10;;;12.20;;
2390;SDS011;22957;50.824;4.360;2023-12-07T02:30:13;23.00;;;12.77;;
2390;SDS011;22957;50.824;4.360;2023-12-07T02:32:40;20.43;;;11.70;;
2390;SDS011;22957;50.824;4.360;2023-12-07T02:35:08;21.20;;;11.37;;
2390;SDS011;22957;50.824;4.360;2023-12-07T02:37:41;23.20;;;13.40;;
2390;SDS011;22957;50.824;4.360;2023-12-07T02:40:07;15.33;;;9.30;;
2390;SDS011;22957;50.824;4.360;2023-12-07T02:42:35;20.00;;;13.10;;
2390;SDS011;22957;50.824;4.360;2023-12-07T02:45:03;21.30;;;13.07;;
2390;SDS011;22957;50.824;4.360;2023-12-07T02:47:29;18.53;;;11.77;;
2390;SDS011;22957;50.824;4.360;2023-12-07T02:49:55;16.40;;;10.20;;
2390;SDS011;22957;50.824;4.360;2023-12-07T02:52:21;19.00;;;12.17;;
2390;SDS011;22957;50.824;4.360;2023-12-07T02:54:46;20.23;;;12.57;;
2390;SDS011;22957;50.824;4.360;2023-12-07T02:57:13;22.60;;;11.93;;
2390;SDS011;22957;50.824;4.360;2023-12-07T02:59:39;22.23;;;11.80;;
2390;SDS011;22957;50.824;4.360;2023-12-07T03:02:05;19.97;;;9.97;;
2390;SDS011;22957;50.824;4.360;2023-12-07T03:04:31;18.33;;;11.20;;
2390;SDS011;22957;50.824;4.360;2023-12-07T03:06:57;19.63;;;11.50;;
2390;SDS011;22957;50.824;4.360;2023-12-07T03:09:23;20.50;;;13.87;;
2390;SDS011;22957;50.824;4.360;2023-12-07T03:11:49;21.73;;;11.90;;
2390;SDS011;22957;50.824;4.360;2023-12-07T03:14:15;23.20;;;11.13;;
2390;SDS011;22957;50.824;4.360;2023-12-07T03:16:41;21.07;;;13.23;;
2390;SDS011;22957;50.824;4.360;2023-12-07T03:19:07;15.90;;;9.87;;
2390;SDS011;22957;50.824;4.360;2023-12-07T03:21:32;19.33;;;10.90;;
2390;SDS011;22957;50.824;4.360;2023-12-07T03:23:58;23.00;;;11.13;;
2390;SDS011;22957;50.824;4.360;2023-12-07T03:26:23;19.13;;;11.40;;
2390;SDS011;22957;50.824;4.360;2023-12-07T03:28:49;17.27;;;9.90;;
2390;SDS011;22957;50.824;4.360;2023-12-07T03:31:15;20.57;;;11.97;;
2390;SDS011;22957;50.824;4.360;2023-12-07T03:33:41;21.37;;;12.67;;
2390;SDS011;22957;50.824;4.360;2023-12-07T03:36:10;24.70;;;11.70;;
2390;SDS011;22957;50.824;4.360;2023-12-07T03:38:36;13.57;;;9.63;;
2390;SDS011;22957;50.824;4.360;2023-12-07T03:41:01;16.77;;;10.23;;
2390;SDS011;22957;50.824;4.360;2023-12-07T03:43:27;27.83;;;11.93;;
2390;SDS011;22957;50.824;4.360;2023-12-07T03:45:53;20.53;;;11.10;;
2390;SDS011;22957;50.824;4.360;2023-12-07T03:48:18;15.57;;;10.27;;
2390;SDS011;22957;50.824;4.360;2023-12-07T03:50:44;26.07;;;10.73;;
2390;SDS011;22957;50.824;4.360;2023-12-07T03:53:09;18.60;;;12.00;;
2390;SDS011;22957;50.824;4.360;2023-12-07T03:55:35;20.47;;;10.50;;
2390;SDS011;22957;50.824;4.360;2023-12-07T03:58:01;16.00;;;11.50;;
2390;SDS011;22957;50.824;4.360;2023-12-07T04:00:27;30.93;;;19.53;;
2390;SDS011;22957;50.824;4.360;2023-12-07T04:02:53;17.33;;;10.37;;
2390;SDS011;22957;50.824;4.360;2023-12-07T04:05:18;17.50;;;10.63;;
2390;SDS011;22957;50.824;4.360;2023-12-07T04:07:44;13.13;;;9.40;;
2390;SDS011;22957;50.824;4.360;2023-12-07T04:10:09;27.63;;;12.10;;
2390;SDS011;22957;50.824;4.360;2023-12-07T04:12:35;16.70;;;10.60;;
2390;SDS011;22957;50.824;4.360;2023-12-07T04:15:01;18.47;;;10.67;;
2390;SDS011;22957;50.824;4.360;2023-12-07T04:17:27;19.40;;;14.37;;
2390;SDS011;22957;50.824;4.360;2023-12-07T04:19:53;21.30;;;12.53;;
2390;SDS011;22957;50.824;4.360;2023-12-07T04:22:19;17.50;;;11.10;;
2390;SDS011;22957;50.824;4.360;2023-12-07T04:24:44;16.90;;;9.87;;
2390;SDS011;22957;50.824;4.360;2023-12-07T04:27:10;18.60;;;12.47;;
2390;SDS011;22957;50.824;4.360;2023-12-07T04:29:35;16.70;;;10.07;;
2390;SDS011;22957;50.824;4.360;2023-12-07T04:32:01;21.83;;;14.20;;
2390;SDS011;22957;50.824;4.360;2023-12-07T04:34:27;18.10;;;11.70;;
2390;SDS011;22957;50.824;4.360;2023-12-07T04:36:52;19.87;;;10.33;;
2390;SDS011;22957;50.824;4.360;2023-12-07T04:39:18;15.10;;;9.90;;
2390;SDS011;22957;50.824;4.360;2023-12-07T04:41:44;17.27;;;11.03;;
2390;SDS011;22957;50.824;4.360;2023-12-07T04:44:09;18.17;;;11.07;;
2390;SDS011;22957;50.824;4.360;2023-12-07T04:46:35;17.50;;;10.80;;
2390;SDS011;22957;50.824;4.360;2023-12-07T04:49:01;16.50;;;10.73;;
2390;SDS011;22957;50.824;4.360;2023-12-07T04:51:26;19.00;;;10.17;;
2390;SDS011;22957;50.824;4.360;2023-12-07T04:53:52;18.07;;;11.70;;
2390;SDS011;22957;50.824;4.360;2023-12-07T04:56:17;18.13;;;10.17;;
2390;SDS011;22957;50.824;4.360;2023-12-07T04:58:44;17.70;;;10.97;;
2390;SDS011;22957;50.824;4.360;2023-12-07T05:01:09;22.80;;;11.10;;
2390;SDS011;22957;50.824;4.360;2023-12-07T05:03:35;17.90;;;10.33;;
2390;SDS011;22957;50.824;4.360;2023-12-07T05:06:00;18.10;;;10.17;;
2390;SDS011;22957;50.824;4.360;2023-12-07T05:08:26;22.73;;;11.93;;
2390;SDS011;22957;50.824;4.360;2023-12-07T05:10:52;20.67;;;10.43;;
2390;SDS011;22957;50.824;4.360;2023-12-07T05:13:18;18.00;;;10.67;;
2390;SDS011;22957;50.824;4.360;2023-12-07T05:15:43;15.77;;;9.33;;
2390;SDS011;22957;50.824;4.360;2023-12-07T05:18:11;23.97;;;11.97;;
2390;SDS011;22957;50.824;4.360;2023-12-07T05:20:37;22.40;;;12.90;;
2390;SDS011;22957;50.824;4.360;2023-12-07T05:23:04;21.33;;;11.00;;
2390;SDS011;22957;50.824;4.360;2023-12-07T05:25:30;20.47;;;10.47;;
2390;SDS011;22957;50.824;4.360;2023-12-07T05:27:57;19.93;;;10.47;;
2390;SDS011;22957;50.824;4.360;2023-12-07T05:30:23;21.57;;;9.77;;
2390;SDS011;22957;50.824;4.360;2023-12-07T05:32:49;22.13;;;11.87;;
2390;SDS011;22957;50.824;4.360;2023-12-07T05:35:15;15.77;;;9.40;;
2390;SDS011;22957;50.824;4.360;2023-12-07T05:37:41;14.43;;;9.40;;
2390;SDS011;22957;50.824;4.360;2023-12-07T05:40:07;20.13;;;11.20;;
2390;SDS011;22957;50.824;4.360;2023-12-07T05:42:34;17.73;;;9.33;;
2390;SDS011;22957;50.824;4.360;2023-12-07T05:44:59;16.90;;;9.83;;
2390;SDS011;22957;50.824;4.360;2023-12-07T05:47:26;18.60;;;13.27;;
2390;SDS011;22957;50.824;4.360;2023-12-07T05:49:52;19.93;;;10.13;;
2390;SDS011;22957;50.824;4.360;2023-12-07T05:52:17;17.63;;;8.77;;
2390;SDS011;22957;50.824;4.360;2023-12-07T05:54:43;21.80;;;10.47;;
2390;SDS011;22957;50.824;4.360;2023-12-07T05:57:11;16.00;;;9.20;;
2390;SDS011;22957;50.824;4.360;2023-12-07T05:59:38;14.13;;;9.23;;
2390;SDS011;22957;50.824;4.360;2023-12-07T06:02:04;19.37;;;9.93;;
2390;SDS011;22957;50.824;4.360;2023-12-07T06:04:30;10.20;;;7.77;;
2390;SDS011;22957;50.824;4.360;2023-12-07T06:06:56;20.73;;;9.10;;
2390;SDS011;22957;50.824;4.360;2023-12-07T06:09:21;16.63;;;8.77;;
2390;SDS011;22957;50.824;4.360;2023-12-07T06:11:47;14.30;;;8.73;;
2390;SDS011;22957;50.824;4.360;2023-12-07T06:14:13;20.67;;;9.93;;
2390;SDS011;22957;50.824;4.360;2023-12-07T06:16:38;16.30;;;10.10;;
2390;SDS011;22957;50.824;4.360;2023-12-07T06:19:04;13.63;;;7.50;;
2390;SDS011;22957;50.824;4.360;2023-12-07T06:21:30;16.80;;;9.50;;
2390;SDS011;22957;50.824;4.360;2023-12-07T06:23:56;17.73;;;9.80;;
2390;SDS011;22957;50.824;4.360;2023-12-07T06:26:23;12.70;;;7.70;;
2390;SDS011;22957;50.824;4.360;2023-12-07T06:28:49;15.93;;;10.30;;
2390;SDS011;22957;50.824;4.360;2023-12-07T06:31:15;21.63;;;11.30;;
2390;SDS011;22957;50.824;4.360;2023-12-07T06:33:44;16.93;;;11.03;;
2390;SDS011;22957;50.824;4.360;2023-12-07T06:36:10;16.90;;;9.10;;
2390;SDS011;22957;50.824;4.360;2023-12-07T06:38:36;20.97;;;10.57;;
2390;SDS011;22957;50.824;4.360;2023-12-07T06:41:03;17.63;;;9.23;;
2390;SDS011;22957;50.824;4.360;2023-12-07T06:43:29;14.40;;;8.13;;
2390;SDS011;22957;50.824;4.360;2023-12-07T06:45:54;18.63;;;8.00;;
2390;SDS011;22957;50.824;4.360;2023-12-07T06:48:20;14.10;;;7.70;;
2390;SDS011;22957;50.824;4.360;2023-12-07T06:50:46;22.33;;;7.87;;
2390;SDS011;22957;50.824;4.360;2023-12-07T06:53:12;21.80;;;8.60;;
2390;SDS011;22957;50.824;4.360;2023-12-07T06:55:39;18.50;;;8.90;;
2390;SDS011;22957;50.824;4.360;2023-12-07T06:58:06;16.07;;;8.07;;
2390;SDS011;22957;50.824;4.360;2023-12-07T07:00:32;14.70;;;8.87;;
2390;SDS011;22957;50.824;4.360;2023-12-07T07:02:58;13.00;;;7.30;;
2390;SDS011;22957;50.824;4.360;2023-12-07T07:05:23;18.20;;;9.73;;
2390;SDS011;22957;50.824;4.360;2023-12-07T07:07:49;15.63;;;8.80;;
2390;SDS011;22957;50.824;4.360;2023-12-07T07:10:16;18.50;;;10.50;;
2390;SDS011;22957;50.824;4.360;2023-12-07T07:12:42;20.53;;;9.93;;
2390;SDS011;22957;50.824;4.360;2023-12-07T07:15:07;12.87;;;8.27;;
2390;SDS011;22957;50.824;4.360;2023-12-07T07:17:33;18.47;;;8.03;;
2390;SDS011;22957;50.824;4.360;2023-12-07T07:19:59;16.30;;;8.97;;
2390;SDS011;22957;50.824;4.360;2023-12-07T07:22:25;15.63;;;8.03;;
2390;SDS011;22957;50.824;4.360;2023-12-07T07:24:50;14.50;;;8.47;;
2390;SDS011;22957;50.824;4.360;2023-12-07T07:27:17;21.73;;;9.67;;
2390;SDS011;22957;50.824;4.360;2023-12-07T07:29:43;15.90;;;8.83;;
2390;SDS011;22957;50.824;4.360;2023-12-07T07:32:09;22.60;;;8.00;;
2390;SDS011;22957;50.824;4.360;2023-12-07T07:34:35;28.07;;;7.67;;
2390;SDS011;22957;50.824;4.360;2023-12-07T07:37:01;17.43;;;8.07;;
2390;SDS011;22957;50.824;4.360;2023-12-07T07:39:28;21.63;;;8.67;;
2390;SDS011;22957;50.824;4.360;2023-12-07T07:41:53;19.50;;;10.47;;
2390;SDS011;22957;50.824;4.360;2023-12-07T07:44:19;18.60;;;10.50;;
2390;SDS011;22957;50.824;4.360;2023-12-07T07:46:44;21.70;;;9.20;;
2390;SDS011;22957;50.824;4.360;2023-12-07T07:49:11;12.77;;;7.70;;
2390;SDS011;22957;50.824;4.360;2023-12-07T07:51:37;18.83;;;7.57;;
2390;SDS011;22957;50.824;4.360;2023-12-07T07:54:03;15.73;;;8.93;;
2390;SDS011;22957;50.824;4.360;2023-12-07T07:56:29;13.27;;;8.10;;
2390;SDS011;22957;50.824;4.360;2023-12-07T07:58:55;18.83;;;9.53;;
2390;SDS011;22957;50.824;4.360;2023-12-07T08:01:20;12.07;;;8.53;;
2390;SDS011;22957;50.824;4.360;2023-12-07T08:03:46;14.90;;;8.67;;
2390;SDS011;22957;50.824;4.360;2023-12-07T08:06:12;16.13;;;9.43;;
2390;SDS011;22957;50.824;4.360;2023-12-07T08:08:37;16.47;;;8.23;;
2390;SDS011;22957;50.824;4.360;2023-12-07T08:11:03;13.27;;;9.67;;
2390;SDS011;22957;50.824;4.360;2023-12-07T08:13:30;17.60;;;9.60;;
2390;SDS011;22957;50.824;4.360;2023-12-07T08:15:55;17.37;;;8.90;;
2390;SDS011;22957;50.824;4.360;2023-12-07T08:18:21;16.60;;;8.83;;
2390;SDS011;22957;50.824;4.360;2023-12-07T08:20:47;15.90;;;9.17;;
2390;SDS011;22957;50.824;4.360;2023-12-07T08:23:13;14.30;;;9.53;;
2390;SDS011;22957;50.824;4.360;2023-12-07T08:25:38;20.50;;;8.30;;
2390;SDS011;22957;50.824;4.360;2023-12-07T08:28:05;17.20;;;9.30;;
2390;SDS011;22957;50.824;4.360;2023-12-07T08:30:30;14.70;;;7.40;;
2390;SDS011;22957;50.824;4.360;2023-12-07T08:32:56;16.10;;;10.13;;
2390;SDS011;22957;50.824;4.360;2023-12-07T08:35:22;13.83;;;11.27;;
2390;SDS011;22957;50.824;4.360;2023-12-07T08:37:48;12.03;;;8.60;;
2390;SDS011;22957;50.824;4.360;2023-12-07T08:40:14;13.07;;;8.60;;
2390;SDS011;22957;50.824;4.360;2023-12-07T08:42:46;13.77;;;8.57;;
2390;SDS011;22957;50.824;4.360;2023-12-07T08:45:15;15.73;;;9.60;;
2390;SDS011;22957;50.824;4.360;2023-12-07T08:47:41;18.07;;;9.07;;
2390;SDS011;22957;50.824;4.360;2023-12-07T08:50:07;22.13;;;8.60;;
2390;SDS011;22957;50.824;4.360;2023-12-07T08:52:34;87.73;;;25.33;;
2390;SDS011;22957;50.824;4.360;2023-12-07T08:55:00;14.03;;;8.87;;
2390;SDS011;22957;50.824;4.360;2023-12-07T08:57:26;15.70;;;8.73;;
2390;SDS011;22957;50.824;4.360;2023-12-07T08:59:51;14.73;;;8.17;;
2390;SDS011;22957;50.824;4.360;2023-12-07T09:02:17;15.43;;;7.87;;
2390;SDS011;22957;50.824;4.360;2023-12-07T09:04:42;14.00;;;7.97;;
2390;SDS011;22957;50.824;4.360;2023-12-07T09:07:08;12.77;;;7.93;;
2390;SDS011;22957;50.824;4.360;2023-12-07T09:09:34;19.07;;;8.00;;
2390;SDS011;22957;50.824;4.360;2023-12-07T09:12:00;17.00;;;8.93;;
2390;SDS011;22957;50.824;4.360;2023-12-07T09:14:26;15.67;;;9.50;;
2390;SDS011;22957;50.824;4.360;2023-12-07T09:16:51;12.97;;;6.67;;
2390;SDS011;22957;50.824;4.360;2023-12-07T09:19:17;18.90;;;8.77;;
2390;SDS011;22957;50.824;4.360;2023-12-07T09:21:43;19.93;;;12.17;;
2390;SDS011;22957;50.824;4.360;2023-12-07T09:24:08;14.87;;;7.90;;
2390;SDS011;22957;50.824;4.360;2023-12-07T09:26:34;13.93;;;8.03;;
2390;SDS011;22957;50.824;4.360;2023-12-07T09:29:01;14.83;;;7.67;;
2390;SDS011;22957;50.824;4.360;2023-12-07T09:31:26;15.60;;;8.40;;
2390;SDS011;22957;50.824;4.360;2023-12-07T09:33:52;11.30;;;8.40;;
2390;SDS011;22957;50.824;4.360;2023-12-07T09:36:18;14.17;;;8.60;;
2390;SDS011;22957;50.824;4.360;2023-12-07T09:38:46;14.07;;;7.50;;
2390;SDS011;22957;50.824;4.360;2023-12-07T09:41:12;9.57;;;6.60;;
2390;SDS011;22957;50.824;4.360;2023-12-07T09:43:37;13.33;;;7.77;;
2390;SDS011;22957;50.824;4.360;2023-12-07T09:46:04;18.40;;;8.93;;
2390;SDS011;22957;50.824;4.360;2023-12-07T09:48:31;13.03;;;7.93;;
2390;SDS011;22957;50.824;4.360;2023-12-07T09:50:56;12.57;;;7.60;;
2390;SDS011;22957;50.824;4.360;2023-12-07T09:53:26;11.00;;;6.77;;
2390;SDS011;22957;50.824;4.360;2023-12-07T09:55:54;13.60;;;7.07;;
2390;SDS011;22957;50.824;4.360;2023-12-07T09:58:19;20.63;;;7.43;;
2390;SDS011;22957;50.824;4.360;2023-12-07T10:00:46;19.50;;;11.80;;
2390;SDS011;22957;50.824;4.360;2023-12-07T10:03:22;12.73;;;9.53;;
2390;SDS011;22957;50.824;4.360;2023-12-07T10:05:55;16.47;;;9.90;;
2390;SDS011;22957;50.824;4.360;2023-12-07T10:08:32;8.90;;;7.70;;
2390;SDS011;22957;50.824;4.360;2023-12-07T10:13:35;14.23;;;8.10;;
2390;SDS011;22957;50.824;4.360;2023-12-07T10:16:35;10.77;;;7.43;;
2390;SDS011;22957;50.824;4.360;2023-12-07T10:18:53;12.07;;;7.17;;
2390;SDS011;22957;50.824;4.360;2023-12-07T10:21:32;10.70;;;5.57;;
2390;SDS011;22957;50.824;4.360;2023-12-07T10:23:58;12.70;;;6.67;;
2390;SDS011;22957;50.824;4.360;2023-12-07T10:26:24;16.40;;;6.53;;
2390;SDS011;22957;50.824;4.360;2023-12-07T10:28:50;15.67;;;7.50;;
2390;SDS011;22957;50.824;4.360;2023-12-07T10:31:19;12.43;;;8.00;;
2390;SDS011;22957;50.824;4.360;2023-12-07T10:33:48;23.40;;;10.93;;
2390;SDS011;22957;50.824;4.360;2023-12-07T10:36:14;12.40;;;7.93;;
2390;SDS011;22957;50.824;4.360;2023-12-07T10:38:40;16.63;;;9.03;;
2390;SDS011;22957;50.824;4.360;2023-12-07T10:41:10;11.87;;;6.93;;
2390;SDS011;22957;50.824;4.360;2023-12-07T10:43:42;10.23;;;6.80;;
2390;SDS011;22957;50.824;4.360;2023-12-07T10:46:09;12.10;;;6.70;;
2390;SDS011;22957;50.824;4.360;2023-12-07T10:48:44;14.50;;;8.50;;
2390;SDS011;22957;50.824;4.360;2023-12-07T10:51:12;11.63;;;6.13;;
2390;SDS011;22957;50.824;4.360;2023-12-07T10:53:46;12.27;;;6.93;;
2390;SDS011;22957;50.824;4.360;2023-12-07T10:56:16;10.23;;;6.77;;
2390;SDS011;22957;50.824;4.360;2023-12-07T10:58:53;6.77;;;5.23;;
2390;SDS011;22957;50.824;4.360;2023-12-07T11:01:21;11.60;;;6.70;;
2390;SDS011;22957;50.824;4.360;2023-12-07T11:03:49;12.60;;;6.37;;
2390;SDS011;22957;50.824;4.360;2023-12-07T11:06:16;9.57;;;6.00;;
2390;SDS011;22957;50.824;4.360;2023-12-07T11:08:44;14.73;;;6.93;;
2390;SDS011;22957;50.824;4.360;2023-12-07T11:11:24;14.23;;;6.17;;
2390;SDS011;22957;50.824;4.360;2023-12-07T11:14:02;18.77;;;5.80;;
2390;SDS011;22957;50.824;4.360;2023-12-07T11:16:35;13.13;;;6.23;;
2390;SDS011;22957;50.824;4.360;2023-12-07T11:19:02;9.63;;;5.73;;
2390;SDS011;22957;50.824;4.360;2023-12-07T11:21:29;10.50;;;6.60;;
2390;SDS011;22957;50.824;4.360;2023-12-07T11:23:55;13.37;;;7.93;;
2390;SDS011;22957;50.824;4.360;2023-12-07T11:26:24;11.33;;;7.23;;
2390;SDS011;22957;50.824;4.360;2023-12-07T11:28:50;11.07;;;6.17;;
2390;SDS011;22957;50.824;4.360;2023-12-07T11:31:16;9.83;;;7.07;;
2390;SDS011;22957;50.824;4.360;2023-12-07T11:33:42;10.80;;;7.20;;
2390;SDS011;22957;50.824;4.360;2023-12-07T11:36:08;10.17;;;7.97;;
2390;SDS011;22957;50.824;4.360;2023-12-07T11:38:36;11.53;;;8.57;;
2390;SDS011;22957;50.824;4.360;2023-12-07T11:41:02;10.13;;;7.40;;
2390;SDS011;22957;50.824;4.360;2023-12-07T11:46:09;16.50;;;7.50;;
2390;SDS011;22957;50.824;4.360;2023-12-07T11:48:35;14.30;;;10.77;;
2390;SDS011;22957;50.824;4.360;2023-12-07T11:53:28;13.20;;;8.40;;
2390;SDS011;22957;50.824;4.360;2023-12-07T11:56:01;15.70;;;7.40;;
2390;SDS011;22957;50.824;4.360;2023-12-07T11:58:29;13.43;;;6.90;;
2390;SDS011;22957;50.824;4.360;2023-12-07T12:00:58;13.30;;;7.50;;
2390;SDS011;22957;50.824;4.360;2023-12-07T12:03:24;11.43;;;8.67;;
2390;SDS011;22957;50.824;4.360;2023-12-07T12:05:54;12.80;;;7.07;;
2390;SDS011;22957;50.824;4.360;2023-12-07T12:08:20;10.83;;;7.50;;
2390;SDS011;22957;50.824;4.360;2023-12-07T12:10:47;9.03;;;6.10;;
2390;SDS011;22957;50.824;4.360;2023-12-07T12:13:15;10.90;;;6.10;;
2390;SDS011;22957;50.824;4.360;2023-12-07T12:15:41;9.70;;;6.50;;
2390;SDS011;22957;50.824;4.360;2023-12-07T12:18:07;13.07;;;7.50;;
2390;SDS011;22957;50.824;4.360;2023-12-07T12:20:34;8.73;;;6.00;;
2390;SDS011;22957;50.824;4.360;2023-12-07T12:23:00;11.23;;;6.53;;
2390;SDS011;22957;50.824;4.360;2023-12-07T12:25:27;14.93;;;5.83;;
2390;SDS011;22957;50.824;4.360;2023-12-07T12:27:55;12.37;;;8.40;;
2390;SDS011;22957;50.824;4.360;2023-12-07T12:30:27;8.03;;;5.77;;
2390;SDS011;22957;50.824;4.360;2023-12-07T12:32:53;12.63;;;6.20;;
2390;SDS011;22957;50.824;4.360;2023-12-07T12:35:20;12.03;;;6.73;;
2390;SDS011;22957;50.824;4.360;2023-12-07T12:37:46;17.37;;;8.30;;
2390;SDS011;22957;50.824;4.360;2023-12-07T12:40:14;12.90;;;6.90;;
2390;SDS011;22957;50.824;4.360;2023-12-07T12:42:43;11.83;;;5.80;;
2390;SDS011;22957;50.824;4.360;2023-12-07T12:45:14;5.53;;;4.57;;
2390;SDS011;22957;50.824;4.360;2023-12-07T12:47:41;7.87;;;5.80;;
2390;SDS011;22957;50.824;4.360;2023-12-07T12:50:10;14.27;;;5.40;;
2390;SDS011;22957;50.824;4.360;2023-12-07T12:52:37;10.17;;;5.50;;
2390;SDS011;22957;50.824;4.360;2023-12-07T12:55:08;10.30;;;5.00;;
2390;SDS011;22957;50.824;4.360;2023-12-07T12:57:35;8.23;;;5.27;;
2390;SDS011;22957;50.824;4.360;2023-12-07T13:00:01;14.83;;;5.57;;
2390;SDS011;22957;50.824;4.360;2023-12-07T13:02:27;9.80;;;5.80;;
2390;SDS011;22957;50.824;4.360;2023-12-07T13:04:54;8.67;;;5.73;;
2390;SDS011;22957;50.824;4.360;2023-12-07T13:07:21;13.93;;;4.83;;
2390;SDS011;22957;50.824;4.360;2023-12-07T13:09:49;10.37;;;5.47;;
2390;SDS011;22957;50.824;4.360;2023-12-07T13:12:15;14.23;;;4.63;;
2390;SDS011;22957;50.824;4.360;2023-12-07T13:14:40;7.13;;;5.10;;
2390;SDS011;22957;50.824;4.360;2023-12-07T13:17:06;7.10;;;4.70;;
2390;SDS011;22957;50.824;4.360;2023-12-07T13:19:35;16.70;;;8.83;;
2390;SDS011;22957;50.824;4.360;2023-12-07T13:22:00;8.07;;;5.77;;
2390;SDS011;22957;50.824;4.360;2023-12-07T13:24:28;9.33;;;7.27;;
2390;SDS011;22957;50.824;4.360;2023-12-07T13:26:54;10.50;;;8.40;;
2390;SDS011;22957;50.824;4.360;2023-12-07T13:29:21;11.53;;;6.00;;
2390;SDS011;22957;50.824;4.360;2023-12-07T13:31:48;8.10;;;5.63;;
2390;SDS011;22957;50.824;4.360;2023-12-07T13:34:14;11.73;;;5.10;;
2390;SDS011;22957;50.824;4.360;2023-12-07T13:36:40;10.57;;;6.07;;
2390;SDS011;22957;50.824;4.360;2023-12-07T13:39:05;8.30;;;4.50;;
2390;SDS011;22957;50.824;4.360;2023-12-07T13:41:33;7.77;;;5.53;;
2390;SDS011;22957;50.824;4.360;2023-12-07T13:43:59;9.40;;;5.67;;
2390;SDS011;22957;50.824;4.360;2023-12-07T13:46:26;13.53;;;6.80;;
2390;SDS011;22957;50.824;4.360;2023-12-07T13:48:52;8.10;;;6.10;;
2390;SDS011;22957;50.824;4.360;2023-12-07T13:51:18;8.10;;;5.30;;
2390;SDS011;22957;50.824;4.360;2023-12-07T13:53:45;7.03;;;6.03;;
2390;SDS011;22957;50.824;4.360;2023-12-07T13:56:11;9.77;;;6.00;;
2390;SDS011;22957;50.824;4.360;2023-12-07T13:58:36;6.90;;;4.87;;
2390;SDS011;22957;50.824;4.360;2023-12-07T14:01:03;10.57;;;6.00;;
2390;SDS011;22957;50.824;4.360;2023-12-07T14:03:30;10.63;;;7.00;;
2390;SDS011;22957;50.824;4.360;2023-12-07T14:05:56;8.20;;;5.00;;
2390;SDS011;22957;50.824;4.360;2023-12-07T14:08:21;7.53;;;5.80;;
2390;SDS011;22957;50.824;4.360;2023-12-07T14:10:47;8.53;;;5.80;;
2390;SDS011;22957;50.824;4.360;2023-12-07T14:13:13;12.40;;;6.43;;
2390;SDS011;22957;50.824;4.360;2023-12-07T14:15:38;11.20;;;5.40;;
2390;SDS011;22957;50.824;4.360;2023-12-07T14:18:05;14.03;;;4.50;;
2390;SDS011;22957;50.824;4.360;2023-12-07T14:20:31;8.87;;;4.77;;
2390;SDS011;22957;50.824;4.360;2023-12-07T14:22:58;6.27;;;3.67;;
2390;SDS011;22957;50.824;4.360;2023-12-07T14:25:29;9.00;;;4.70;;
2390;SDS011;22957;50.824;4.360;2023-12-07T14:27:55;10.30;;;4.20;;
2390;SDS011;22957;50.824;4.360;2023-12-07T14:30:20;7.80;;;5.13;;
2390;SDS011;22957;50.824;4.360;2023-12-07T14:32:47;7.13;;;5.50;;
2390;SDS011;22957;50.824;4.360;2023-12-07T14:35:16;6.73;;;4.97;;
2390;SDS011;22957;50.824;4.360;2023-12-07T14:37:45;9.70;;;8.70;;
2390;SDS011;22957;50.824;4.360;2023-12-07T14:40:11;23.87;;;13.37;;
2390;SDS011;22957;50.824;4.360;2023-12-07T14:42:39;11.30;;;7.40;;
2390;SDS011;22957;50.824;4.360;2023-12-07T14:45:05;10.10;;;8.87;;
2390;SDS011;22957;50.824;4.360;2023-12-07T14:47:31;11.00;;;6.93;;